sensor_id;sensor_type;location;lat;lon;timestamp;P1;durP1;ratioP1;P2;durP2;ratioP2
20154;SDS011;10238;49.556;10.956;2022-10-31T00:00:55;10.25;;;6.90;;
20154;SDS011;10238;49.556;10.956;2022-10-31T00:03:44;7.95;;;6.75;;
20154;SDS011;10238;49.556;10.956;2022-10-31T00:06:31;9.27;;;7.13;;
20154;SDS011;10238;49.556;10.956;2022-10-31T00:09:19;9.65;;;7.57;;
20154;SDS011;10238;49.556;10.956;2022-10-31T00:12:07;10.98;;;7.40;;
20154;SDS011;10238;49.556;10.956;2022-10-31T00:14:55;9.52;;;7.07;;
20154;SDS011;10238;49.556;10.956;2022-10-31T00:17:43;9.68;;;6.97;;
20154;SDS011;10238;49.556;10.956;2022-10-31T00:20:34;10.45;;;6.60;;
20154;SDS011;10238;49.556;10.956;2022-10-31T00:23:22;10.70;;;6.93;;
20154;SDS011;10238;49.556;10.956;2022-10-31T00:26:09;8.52;;;7.00;;
20154;SDS011;10238;49.556;10.956;2022-10-31T00:28:57;9.05;;;6.68;;
20154;SDS011;10238;49.556;10.956;2022-10-31T00:31:46;8.90;;;7.03;;
20154;SDS011;10238;49.556;10.956;2022-10-31T00:34:34;7.30;;;6.28;;
20154;SDS011;10238;49.556;10.956;2022-10-31T00:37:22;7.45;;;6.53;;
20154;SDS011;10238;49.556;10.956;2022-10-31T00:40:10;8.77;;;6.45;;
20154;SDS011;10238;49.556;10.956;2022-10-31T00:42:58;10.18;;;7.43;;
20154;SDS011;10238;49.556;10.956;2022-10-31T00:45:46;9.48;;;6.85;;
20154;SDS011;10238;49.556;10.956;2022-10-31T00:48:35;7.55;;;6.70;;
20154;SDS011;10238;49.556;10.956;2022-10-31T00:51:24;8.60;;;6.72;;
20154;SDS011;10238;49.556;10.956;2022-10-31T00:54:14;8.82;;;6.32;;
20154;SDS011;10238;49.556;10.956;2022-10-31T00:57:01;9.02;;;6.93;;
20154;SDS011;10238;49.556;10.956;2022-10-31T00:59:50;8.23;;;6.28;;
20154;SDS011;10238;49.556;10.956;2022-10-31T01:02:37;7.53;;;6.00;;
20154;SDS011;10238;49.556;10.956;2022-10-31T01:05:26;8.25;;;6.55;;
20154;SDS011;10238;49.556;10.956;2022-10-31T01:08:15;7.40;;;5.88;;
20154;SDS011;10238;49.556;10.956;2022-10-31T01:11:05;7.18;;;5.90;;
20154;SDS011;10238;49.556;10.956;2022-10-31T01:13:58;7.78;;;6.40;;
20154;SDS011;10238;49.556;10.956;2022-10-31T01:16:45;7.63;;;6.72;;
20154;SDS011;10238;49.556;10.956;2022-10-31T01:19:33;9.13;;;6.28;;
20154;SDS011;10238;49.556;10.956;2022-10-31T01:22:21;7.75;;;6.40;;
20154;SDS011;10238;49.556;10.956;2022-10-31T01:25:10;7.95;;;5.88;;
20154;SDS011;10238;49.556;10.956;2022-10-31T01:27:58;8.23;;;5.97;;
20154;SDS011;10238;49.556;10.956;2022-10-31T01:30:46;6.47;;;5.57;;
20154;SDS011;10238;49.556;10.956;2022-10-31T01:33:34;7.38;;;5.95;;
20154;SDS011;10238;49.556;10.956;2022-10-31T01:36:24;6.85;;;5.57;;
20154;SDS011;10238;49.556;10.956;2022-10-31T01:39:14;8.23;;;6.03;;
20154;SDS011;10238;49.556;10.956;2022-10-31T01:42:04;7.00;;;5.47;;
20154;SDS011;10238;49.556;10.956;2022-10-31T01:44:55;5.97;;;5.38;;
20154;SDS011;10238;49.556;10.956;2022-10-31T01:47:46;6.47;;;5.77;;
20154;SDS011;10238;49.556;10.956;2022-10-31T01:50:36;6.22;;;5.63;;
20154;SDS011;10238;49.556;10.956;2022-10-31T01:53:27;7.30;;;6.07;;
20154;SDS011;10238;49.556;10.956;2022-10-31T01:56:15;9.30;;;6.05;;
20154;SDS011;10238;49.556;10.956;2022-10-31T01:59:06;7.43;;;5.47;;
20154;SDS011;10238;49.556;10.956;2022-10-31T02:02:00;6.05;;;5.20;;
20154;SDS011;10238;49.556;10.956;2022-10-31T02:04:48;7.30;;;5.07;;
20154;SDS011;10238;49.556;10.956;2022-10-31T02:07:39;6.57;;;5.50;;
20154;SDS011;10238;49.556;10.956;2022-10-31T02:10:33;7.07;;;5.93;;
20154;SDS011;10238;49.556;10.956;2022-10-31T02:13:23;7.80;;;5.78;;
20154;SDS011;10238;49.556;10.956;2022-10-31T02:16:15;7.18;;;5.60;;
20154;SDS011;10238;49.556;10.956;2022-10-31T02:19:09;7.82;;;6.10;;
20154;SDS011;10238;49.556;10.956;2022-10-31T02:22:05;7.65;;;5.82;;
20154;SDS011;10238;49.556;10.956;2022-10-31T02:25:17;7.40;;;5.60;;
20154;SDS011;10238;49.556;10.956;2022-10-31T02:28:40;6.00;;;5.40;;
20154;SDS011;10238;49.556;10.956;2022-10-31T02:32:04;8.07;;;5.97;;
20154;SDS011;10238;49.556;10.956;2022-10-31T02:35:02;7.68;;;5.53;;
20154;SDS011;10238;49.556;10.956;2022-10-31T02:38:04;8.43;;;6.05;;
20154;SDS011;10238;49.556;10.956;2022-10-31T02:41:15;7.82;;;5.82;;
20154;SDS011;10238;49.556;10.956;2022-10-31T02:44:15;6.50;;;5.60;;
20154;SDS011;10238;49.556;10.956;2022-10-31T02:47:14;6.82;;;5.20;;
20154;SDS011;10238;49.556;10.956;2022-10-31T02:50:04;8.33;;;6.10;;
20154;SDS011;10238;49.556;10.956;2022-10-31T02:52:58;8.77;;;5.53;;
20154;SDS011;10238;49.556;10.956;2022-10-31T02:55:54;6.88;;;5.97;;
20154;SDS011;10238;49.556;10.956;2022-10-31T02:58:49;7.70;;;5.65;;
20154;SDS011;10238;49.556;10.956;2022-10-31T03:01:48;5.75;;;5.15;;
20154;SDS011;10238;49.556;10.956;2022-10-31T03:05:14;6.70;;;5.45;;
20154;SDS011;10238;49.556;10.956;2022-10-31T03:08:30;7.78;;;5.75;;
20154;SDS011;10238;49.556;10.956;2022-10-31T03:11:31;6.63;;;5.35;;
20154;SDS011;10238;49.556;10.956;2022-10-31T03:14:30;14.98;;;7.07;;
20154;SDS011;10238;49.556;10.956;2022-10-31T03:17:30;7.10;;;6.00;;
20154;SDS011;10238;49.556;10.956;2022-10-31T03:20:30;6.60;;;5.50;;
20154;SDS011;10238;49.556;10.956;2022-10-31T03:23:24;8.55;;;6.05;;
20154;SDS011;10238;49.556;10.956;2022-10-31T03:26:15;5.85;;;5.32;;
20154;SDS011;10238;49.556;10.956;2022-10-31T03:29:06;6.80;;;5.65;;
20154;SDS011;10238;49.556;10.956;2022-10-31T03:32:00;6.70;;;5.50;;
20154;SDS011;10238;49.556;10.956;2022-10-31T03:34:55;7.25;;;5.57;;
20154;SDS011;10238;49.556;10.956;2022-10-31T03:37:47;6.40;;;5.40;;
20154;SDS011;10238;49.556;10.956;2022-10-31T03:43:33;6.63;;;5.47;;
20154;SDS011;10238;49.556;10.956;2022-10-31T03:46:30;5.95;;;5.35;;
20154;SDS011;10238;49.556;10.956;2022-10-31T03:49:18;6.43;;;5.22;;
20154;SDS011;10238;49.556;10.956;2022-10-31T03:52:10;6.40;;;5.45;;
20154;SDS011;10238;49.556;10.956;2022-10-31T03:55:09;6.15;;;5.55;;
20154;SDS011;10238;49.556;10.956;2022-10-31T03:58:06;5.88;;;5.28;;
20154;SDS011;10238;49.556;10.956;2022-10-31T04:01:00;6.38;;;5.75;;
20154;SDS011;10238;49.556;10.956;2022-10-31T04:03:51;6.72;;;6.00;;
20154;SDS011;10238;49.556;10.956;2022-10-31T04:06:41;6.68;;;5.80;;
20154;SDS011;10238;49.556;10.956;2022-10-31T04:09:35;5.85;;;5.35;;
20154;SDS011;10238;49.556;10.956;2022-10-31T04:12:25;6.55;;;5.35;;
20154;SDS011;10238;49.556;10.956;2022-10-31T04:15:17;5.65;;;5.15;;
20154;SDS011;10238;49.556;10.956;2022-10-31T04:18:07;6.22;;;5.20;;
20154;SDS011;10238;49.556;10.956;2022-10-31T04:20:59;7.38;;;5.57;;
20154;SDS011;10238;49.556;10.956;2022-10-31T04:23:50;5.50;;;5.00;;
20154;SDS011;10238;49.556;10.956;2022-10-31T04:26:39;7.47;;;5.43;;
20154;SDS011;10238;49.556;10.956;2022-10-31T04:29:27;12.05;;;6.72;;
20154;SDS011;10238;49.556;10.956;2022-10-31T04:32:14;6.80;;;6.10;;
20154;SDS011;10238;49.556;10.956;2022-10-31T04:35:03;8.27;;;6.43;;
20154;SDS011;10238;49.556;10.956;2022-10-31T04:37:52;6.32;;;5.70;;
20154;SDS011;10238;49.556;10.956;2022-10-31T04:40:40;6.35;;;5.72;;
20154;SDS011;10238;49.556;10.956;2022-10-31T04:43:28;6.63;;;5.78;;
20154;SDS011;10238;49.556;10.956;2022-10-31T04:46:18;6.30;;;5.68;;
20154;SDS011;10238;49.556;10.956;2022-10-31T04:49:05;8.50;;;6.35;;
20154;SDS011;10238;49.556;10.956;2022-10-31T04:51:53;7.13;;;5.88;;
20154;SDS011;10238;49.556;10.956;2022-10-31T04:54:40;7.60;;;5.80;;
20154;SDS011;10238;49.556;10.956;2022-10-31T04:57:28;6.40;;;5.80;;
20154;SDS011;10238;49.556;10.956;2022-10-31T05:00:18;6.43;;;5.82;;
20154;SDS011;10238;49.556;10.956;2022-10-31T05:03:07;7.00;;;6.10;;
20154;SDS011;10238;49.556;10.956;2022-10-31T05:05:55;6.75;;;5.82;;
20154;SDS011;10238;49.556;10.956;2022-10-31T05:08:42;6.75;;;5.93;;
20154;SDS011;10238;49.556;10.956;2022-10-31T05:11:30;7.20;;;6.10;;
20154;SDS011;10238;49.556;10.956;2022-10-31T05:14:18;5.93;;;5.32;;
20154;SDS011;10238;49.556;10.956;2022-10-31T05:17:14;6.35;;;5.38;;
20154;SDS011;10238;49.556;10.956;2022-10-31T05:20:04;6.47;;;5.88;;
20154;SDS011;10238;49.556;10.956;2022-10-31T05:22:53;6.28;;;5.68;;
20154;SDS011;10238;49.556;10.956;2022-10-31T05:25:43;6.18;;;5.32;;
20154;SDS011;10238;49.556;10.956;2022-10-31T05:28:30;6.15;;;5.53;;
20154;SDS011;10238;49.556;10.956;2022-10-31T05:31:18;8.75;;;6.10;;
20154;SDS011;10238;49.556;10.956;2022-10-31T05:34:06;6.05;;;5.45;;
20154;SDS011;10238;49.556;10.956;2022-10-31T05:36:54;7.13;;;5.88;;
20154;SDS011;10238;49.556;10.956;2022-10-31T05:39:42;6.00;;;5.40;;
20154;SDS011;10238;49.556;10.956;2022-10-31T05:42:30;8.15;;;6.40;;
20154;SDS011;10238;49.556;10.956;2022-10-31T05:45:19;9.30;;;5.97;;
20154;SDS011;10238;49.556;10.956;2022-10-31T05:48:11;6.77;;;5.77;;
20154;SDS011;10238;49.556;10.956;2022-10-31T05:51:01;5.97;;;5.30;;
20154;SDS011;10238;49.556;10.956;2022-10-31T05:53:51;7.20;;;5.88;;
20154;SDS011;10238;49.556;10.956;2022-10-31T05:56:40;7.38;;;5.53;;
20154;SDS011;10238;49.556;10.956;2022-10-31T05:59:27;6.57;;;5.45;;
20154;SDS011;10238;49.556;10.956;2022-10-31T06:02:15;6.53;;;5.25;;
20154;SDS011;10238;49.556;10.956;2022-10-31T06:05:03;7.00;;;5.90;;
20154;SDS011;10238;49.556;10.956;2022-10-31T06:07:54;6.32;;;5.55;;
20154;SDS011;10238;49.556;10.956;2022-10-31T06:10:49;6.65;;;5.32;;
20154;SDS011;10238;49.556;10.956;2022-10-31T06:13:40;5.60;;;5.00;;
20154;SDS011;10238;49.556;10.956;2022-10-31T06:16:46;6.03;;;5.40;;
20154;SDS011;10238;49.556;10.956;2022-10-31T06:19:46;5.30;;;4.78;;
20154;SDS011;10238;49.556;10.956;2022-10-31T06:22:35;5.80;;;5.20;;
20154;SDS011;10238;49.556;10.956;2022-10-31T06:25:27;5.93;;;5.30;;
20154;SDS011;10238;49.556;10.956;2022-10-31T06:28:14;6.22;;;5.10;;
20154;SDS011;10238;49.556;10.956;2022-10-31T06:31:02;9.60;;;6.20;;
20154;SDS011;10238;49.556;10.956;2022-10-31T06:33:55;7.28;;;5.95;;
20154;SDS011;10238;49.556;10.956;2022-10-31T06:36:43;7.32;;;5.30;;
20154;SDS011;10238;49.556;10.956;2022-10-31T06:39:32;6.93;;;5.75;;
20154;SDS011;10238;49.556;10.956;2022-10-31T06:42:22;6.28;;;5.55;;
20154;SDS011;10238;49.556;10.956;2022-10-31T06:45:09;8.07;;;6.07;;
20154;SDS011;10238;49.556;10.956;2022-10-31T06:47:57;7.82;;;5.85;;
20154;SDS011;10238;49.556;10.956;2022-10-31T06:51:03;7.25;;;5.95;;
20154;SDS011;10238;49.556;10.956;2022-10-31T06:53:51;6.90;;;6.10;;
20154;SDS011;10238;49.556;10.956;2022-10-31T06:56:38;6.45;;;5.63;;
20154;SDS011;10238;49.556;10.956;2022-10-31T06:59:28;7.55;;;5.82;;
20154;SDS011;10238;49.556;10.956;2022-10-31T07:02:17;7.22;;;5.88;;
20154;SDS011;10238;49.556;10.956;2022-10-31T07:05:05;7.60;;;6.18;;
20154;SDS011;10238;49.556;10.956;2022-10-31T07:07:54;6.47;;;5.47;;
20154;SDS011;10238;49.556;10.956;2022-10-31T07:10:50;6.13;;;5.53;;
20154;SDS011;10238;49.556;10.956;2022-10-31T07:13:39;6.07;;;5.25;;
20154;SDS011;10238;49.556;10.956;2022-10-31T07:16:28;7.03;;;5.68;;
20154;SDS011;10238;49.556;10.956;2022-10-31T07:19:16;7.50;;;5.57;;
20154;SDS011;10238;49.556;10.956;2022-10-31T07:22:04;9.57;;;6.55;;
20154;SDS011;10238;49.556;10.956;2022-10-31T07:24:52;6.45;;;5.85;;
20154;SDS011;10238;49.556;10.956;2022-10-31T07:27:41;6.50;;;5.80;;
20154;SDS011;10238;49.556;10.956;2022-10-31T07:30:29;7.70;;;5.68;;
20154;SDS011;10238;49.556;10.956;2022-10-31T07:33:18;7.25;;;5.88;;
20154;SDS011;10238;49.556;10.956;2022-10-31T07:36:06;7.20;;;5.60;;
20154;SDS011;10238;49.556;10.956;2022-10-31T07:38:55;7.35;;;6.25;;
20154;SDS011;10238;49.556;10.956;2022-10-31T07:41:46;7.20;;;6.07;;
20154;SDS011;10238;49.556;10.956;2022-10-31T07:44:34;6.15;;;5.55;;
20154;SDS011;10238;49.556;10.956;2022-10-31T07:47:21;6.93;;;5.95;;
20154;SDS011;10238;49.556;10.956;2022-10-31T07:50:11;7.20;;;5.75;;
20154;SDS011;10238;49.556;10.956;2022-10-31T07:53:03;6.18;;;5.57;;
20154;SDS011;10238;49.556;10.956;2022-10-31T07:55:52;9.05;;;6.10;;
20154;SDS011;10238;49.556;10.956;2022-10-31T07:58:41;7.78;;;6.13;;
20154;SDS011;10238;49.556;10.956;2022-10-31T08:01:28;6.00;;;5.40;;
20154;SDS011;10238;49.556;10.956;2022-10-31T08:04:16;7.50;;;5.82;;
20154;SDS011;10238;49.556;10.956;2022-10-31T08:07:05;6.35;;;5.53;;
20154;SDS011;10238;49.556;10.956;2022-10-31T08:09:52;7.57;;;5.57;;
20154;SDS011;10238;49.556;10.956;2022-10-31T08:12:41;5.97;;;5.45;;
20154;SDS011;10238;49.556;10.956;2022-10-31T08:15:28;7.90;;;5.47;;
20154;SDS011;10238;49.556;10.956;2022-10-31T08:18:17;9.38;;;6.20;;
20154;SDS011;10238;49.556;10.956;2022-10-31T08:21:04;6.70;;;6.00;;
20154;SDS011;10238;49.556;10.956;2022-10-31T08:23:54;7.40;;;5.38;;
20154;SDS011;10238;49.556;10.956;2022-10-31T08:26:42;9.18;;;6.18;;
20154;SDS011;10238;49.556;10.956;2022-10-31T08:29:29;8.32;;;6.50;;
20154;SDS011;10238;49.556;10.956;2022-10-31T08:32:18;8.77;;;6.72;;
20154;SDS011;10238;49.556;10.956;2022-10-31T08:35:07;8.65;;;6.35;;
20154;SDS011;10238;49.556;10.956;2022-10-31T08:37:55;18.92;;;7.45;;
20154;SDS011;10238;49.556;10.956;2022-10-31T08:40:47;9.63;;;6.03;;
20154;SDS011;10238;49.556;10.956;2022-10-31T08:43:36;8.75;;;6.15;;
20154;SDS011;10238;49.556;10.956;2022-10-31T08:46:24;11.60;;;6.43;;
20154;SDS011;10238;49.556;10.956;2022-10-31T08:49:11;8.05;;;6.28;;
20154;SDS011;10238;49.556;10.956;2022-10-31T08:51:59;7.45;;;6.68;;
20154;SDS011;10238;49.556;10.956;2022-10-31T08:54:48;7.15;;;6.00;;
20154;SDS011;10238;49.556;10.956;2022-10-31T08:57:37;7.80;;;5.85;;
20154;SDS011;10238;49.556;10.956;2022-10-31T09:00:28;8.73;;;6.15;;
20154;SDS011;10238;49.556;10.956;2022-10-31T09:03:16;6.90;;;6.20;;
20154;SDS011;10238;49.556;10.956;2022-10-31T09:06:11;8.38;;;6.43;;
20154;SDS011;10238;49.556;10.956;2022-10-31T09:08:58;8.35;;;5.93;;
20154;SDS011;10238;49.556;10.956;2022-10-31T09:11:47;9.10;;;6.60;;
20154;SDS011;10238;49.556;10.956;2022-10-31T09:14:38;10.70;;;7.65;;
20154;SDS011;10238;49.556;10.956;2022-10-31T09:17:26;10.98;;;7.60;;
20154;SDS011;10238;49.556;10.956;2022-10-31T09:20:14;7.85;;;6.88;;
20154;SDS011;10238;49.556;10.956;2022-10-31T09:23:03;6.80;;;5.80;;
20154;SDS011;10238;49.556;10.956;2022-10-31T09:25:54;7.38;;;6.10;;
20154;SDS011;10238;49.556;10.956;2022-10-31T09:28:42;8.55;;;6.45;;
20154;SDS011;10238;49.556;10.956;2022-10-31T09:31:33;7.57;;;6.30;;
20154;SDS011;10238;49.556;10.956;2022-10-31T09:34:27;9.73;;;8.38;;
20154;SDS011;10238;49.556;10.956;2022-10-31T09:37:15;9.45;;;8.57;;
20154;SDS011;10238;49.556;10.956;2022-10-31T09:40:03;10.23;;;9.23;;
20154;SDS011;10238;49.556;10.956;2022-10-31T09:42:55;11.63;;;10.65;;
20154;SDS011;10238;49.556;10.956;2022-10-31T09:45:59;14.23;;;13.13;;
20154;SDS011;10238;49.556;10.956;2022-10-31T09:49:03;9.30;;;8.32;;
20154;SDS011;10238;49.556;10.956;2022-10-31T09:52:20;8.88;;;7.97;;
20154;SDS011;10238;49.556;10.956;2022-10-31T09:55:14;9.02;;;7.93;;
20154;SDS011;10238;49.556;10.956;2022-10-31T09:58:07;9.98;;;9.02;;
20154;SDS011;10238;49.556;10.956;2022-10-31T10:01:02;9.32;;;8.52;;
20154;SDS011;10238;49.556;10.956;2022-10-31T10:03:53;12.15;;;10.63;;
20154;SDS011;10238;49.556;10.956;2022-10-31T10:06:49;9.23;;;7.55;;
20154;SDS011;10238;49.556;10.956;2022-10-31T10:09:39;7.35;;;6.60;;
20154;SDS011;10238;49.556;10.956;2022-10-31T10:12:46;10.02;;;7.78;;
20154;SDS011;10238;49.556;10.956;2022-10-31T10:19:31;7.57;;;6.70;;
20154;SDS011;10238;49.556;10.956;2022-10-31T10:22:42;7.72;;;7.00;;
20154;SDS011;10238;49.556;10.956;2022-10-31T10:25:41;8.43;;;7.07;;
20154;SDS011;10238;49.556;10.956;2022-10-31T10:28:35;8.10;;;7.35;;
20154;SDS011;10238;49.556;10.956;2022-10-31T10:31:30;12.02;;;8.07;;
20154;SDS011;10238;49.556;10.956;2022-10-31T10:37:25;10.55;;;9.43;;
20154;SDS011;10238;49.556;10.956;2022-10-31T10:40:21;9.63;;;8.75;;
20154;SDS011;10238;49.556;10.956;2022-10-31T10:43:20;11.82;;;8.20;;
20154;SDS011;10238;49.556;10.956;2022-10-31T10:46:17;10.00;;;8.95;;
20154;SDS011;10238;49.556;10.956;2022-10-31T10:49:31;16.42;;;10.65;;
20154;SDS011;10238;49.556;10.956;2022-10-31T10:52:31;9.85;;;8.27;;
20154;SDS011;10238;49.556;10.956;2022-10-31T10:55:39;11.40;;;10.30;;
20154;SDS011;10238;49.556;10.956;2022-10-31T10:58:37;11.70;;;10.57;;
20154;SDS011;10238;49.556;10.956;2022-10-31T11:01:27;12.32;;;11.35;;
20154;SDS011;10238;49.556;10.956;2022-10-31T11:04:21;12.25;;;10.90;;
20154;SDS011;10238;49.556;10.956;2022-10-31T11:07:15;12.48;;;11.27;;
20154;SDS011;10238;49.556;10.956;2022-10-31T11:10:04;22.63;;;21.13;;
20154;SDS011;10238;49.556;10.956;2022-10-31T11:13:05;26.15;;;24.52;;
20154;SDS011;10238;49.556;10.956;2022-10-31T11:16:09;19.13;;;17.60;;
20154;SDS011;10238;49.556;10.956;2022-10-31T11:19:09;14.48;;;13.25;;
20154;SDS011;10238;49.556;10.956;2022-10-31T11:22:08;13.05;;;11.85;;
20154;SDS011;10238;49.556;10.956;2022-10-31T11:25:11;24.30;;;22.60;;
20154;SDS011;10238;49.556;10.956;2022-10-31T11:28:09;46.50;;;43.97;;
20154;SDS011;10238;49.556;10.956;2022-10-31T11:30:58;57.85;;;54.70;;
20154;SDS011;10238;49.556;10.956;2022-10-31T11:33:54;54.90;;;52.00;;
20154;SDS011;10238;49.556;10.956;2022-10-31T11:36:47;29.80;;;27.80;;
20154;SDS011;10238;49.556;10.956;2022-10-31T11:39:39;16.85;;;15.38;;
20154;SDS011;10238;49.556;10.956;2022-10-31T11:42:34;11.93;;;10.93;;
20154;SDS011;10238;49.556;10.956;2022-10-31T11:45:29;11.10;;;10.13;;
20154;SDS011;10238;49.556;10.956;2022-10-31T11:48:23;13.93;;;9.57;;
20154;SDS011;10238;49.556;10.956;2022-10-31T11:51:12;13.23;;;8.20;;
20154;SDS011;10238;49.556;10.956;2022-10-31T11:54:15;10.02;;;7.43;;
20154;SDS011;10238;49.556;10.956;2022-10-31T11:57:21;9.70;;;8.25;;
20154;SDS011;10238;49.556;10.956;2022-10-31T12:03:13;10.77;;;8.52;;
20154;SDS011;10238;49.556;10.956;2022-10-31T12:06:27;9.82;;;8.40;;
20154;SDS011;10238;49.556;10.956;2022-10-31T12:09:20;12.77;;;8.43;;
20154;SDS011;10238;49.556;10.956;2022-10-31T12:15:44;9.05;;;6.32;;
20154;SDS011;10238;49.556;10.956;2022-10-31T12:18:46;12.75;;;7.47;;
20154;SDS011;10238;49.556;10.956;2022-10-31T12:21:52;11.32;;;7.35;;
20154;SDS011;10238;49.556;10.956;2022-10-31T12:25:00;9.00;;;7.13;;
20154;SDS011;10238;49.556;10.956;2022-10-31T12:28:25;13.25;;;7.28;;
20154;SDS011;10238;49.556;10.956;2022-10-31T12:34:49;11.50;;;7.18;;
20154;SDS011;10238;49.556;10.956;2022-10-31T12:38:10;14.15;;;12.45;;
20154;SDS011;10238;49.556;10.956;2022-10-31T12:41:34;23.63;;;21.83;;
20154;SDS011;10238;49.556;10.956;2022-10-31T12:44:46;22.42;;;20.65;;
20154;SDS011;10238;49.556;10.956;2022-10-31T12:48:10;21.15;;;19.55;;
20154;SDS011;10238;49.556;10.956;2022-10-31T12:51:20;16.02;;;14.43;;
20154;SDS011;10238;49.556;10.956;2022-10-31T12:54:29;11.75;;;10.65;;
20154;SDS011;10238;49.556;10.956;2022-10-31T13:00:41;9.52;;;8.13;;
20154;SDS011;10238;49.556;10.956;2022-10-31T13:03:36;9.10;;;8.18;;
20154;SDS011;10238;49.556;10.956;2022-10-31T13:06:36;9.10;;;8.25;;
20154;SDS011;10238;49.556;10.956;2022-10-31T13:09:38;9.80;;;8.80;;
20154;SDS011;10238;49.556;10.956;2022-10-31T13:12:36;9.32;;;8.25;;
20154;SDS011;10238;49.556;10.956;2022-10-31T13:15:26;9.82;;;8.82;;
20154;SDS011;10238;49.556;10.956;2022-10-31T13:18:22;13.18;;;11.32;;
20154;SDS011;10238;49.556;10.956;2022-10-31T13:21:21;12.80;;;11.68;;
20154;SDS011;10238;49.556;10.956;2022-10-31T13:24:16;14.95;;;13.40;;
20154;SDS011;10238;49.556;10.956;2022-10-31T13:27:14;12.20;;;8.60;;
20154;SDS011;10238;49.556;10.956;2022-10-31T13:30:14;11.07;;;10.07;;
20154;SDS011;10238;49.556;10.956;2022-10-31T13:33:05;11.18;;;8.00;;
20154;SDS011;10238;49.556;10.956;2022-10-31T13:36:09;12.93;;;8.43;;
20154;SDS011;10238;49.556;10.956;2022-10-31T13:39:18;9.00;;;7.95;;
20154;SDS011;10238;49.556;10.956;2022-10-31T13:42:19;10.02;;;8.52;;
20154;SDS011;10238;49.556;10.956;2022-10-31T13:45:19;9.90;;;7.95;;
20154;SDS011;10238;49.556;10.956;2022-10-31T13:48:17;8.75;;;7.35;;
20154;SDS011;10238;49.556;10.956;2022-10-31T13:51:24;10.43;;;9.43;;
20154;SDS011;10238;49.556;10.956;2022-10-31T13:54:22;13.18;;;12.07;;
20154;SDS011;10238;49.556;10.956;2022-10-31T13:57:24;14.32;;;13.07;;
20154;SDS011;10238;49.556;10.956;2022-10-31T14:00:24;13.23;;;12.10;;
20154;SDS011;10238;49.556;10.956;2022-10-31T14:03:16;18.30;;;17.08;;
20154;SDS011;10238;49.556;10.956;2022-10-31T14:06:41;19.05;;;17.75;;
20154;SDS011;10238;49.556;10.956;2022-10-31T14:09:38;16.30;;;15.23;;
20154;SDS011;10238;49.556;10.956;2022-10-31T14:12:40;18.52;;;17.20;;
20154;SDS011;10238;49.556;10.956;2022-10-31T14:15:32;15.90;;;14.88;;
20154;SDS011;10238;49.556;10.956;2022-10-31T14:18:30;19.48;;;18.25;;
20154;SDS011;10238;49.556;10.956;2022-10-31T14:21:27;19.80;;;18.33;;
20154;SDS011;10238;49.556;10.956;2022-10-31T14:24:30;8.48;;;7.55;;
20154;SDS011;10238;49.556;10.956;2022-10-31T14:27:42;7.03;;;6.32;;
20154;SDS011;10238;49.556;10.956;2022-10-31T14:30:33;7.72;;;6.88;;
20154;SDS011;10238;49.556;10.956;2022-10-31T14:33:23;7.78;;;5.90;;
20154;SDS011;10238;49.556;10.956;2022-10-31T14:36:17;7.32;;;6.22;;
20154;SDS011;10238;49.556;10.956;2022-10-31T14:39:18;9.88;;;7.13;;
20154;SDS011;10238;49.556;10.956;2022-10-31T14:42:20;8.55;;;7.38;;
20154;SDS011;10238;49.556;10.956;2022-10-31T14:45:31;7.43;;;6.70;;
20154;SDS011;10238;49.556;10.956;2022-10-31T14:48:37;9.00;;;6.43;;
20154;SDS011;10238;49.556;10.956;2022-10-31T14:51:54;9.35;;;6.78;;
20154;SDS011;10238;49.556;10.956;2022-10-31T14:54:47;10.63;;;6.63;;
20154;SDS011;10238;49.556;10.956;2022-10-31T14:57:44;7.85;;;7.03;;
20154;SDS011;10238;49.556;10.956;2022-10-31T15:00:43;8.73;;;6.88;;
20154;SDS011;10238;49.556;10.956;2022-10-31T15:03:31;9.70;;;8.75;;
20154;SDS011;10238;49.556;10.956;2022-10-31T15:06:30;9.02;;;8.18;;
20154;SDS011;10238;49.556;10.956;2022-10-31T15:09:30;10.48;;;8.43;;
20154;SDS011;10238;49.556;10.956;2022-10-31T15:12:24;8.50;;;7.47;;
20154;SDS011;10238;49.556;10.956;2022-10-31T15:15:18;8.55;;;7.60;;
20154;SDS011;10238;49.556;10.956;2022-10-31T15:18:13;9.48;;;8.57;;
20154;SDS011;10238;49.556;10.956;2022-10-31T15:21:04;8.43;;;7.63;;
20154;SDS011;10238;49.556;10.956;2022-10-31T15:23:58;8.90;;;8.00;;
20154;SDS011;10238;49.556;10.956;2022-10-31T15:26:53;10.82;;;9.82;;
20154;SDS011;10238;49.556;10.956;2022-10-31T15:29:50;11.50;;;10.55;;
20154;SDS011;10238;49.556;10.956;2022-10-31T15:32:43;14.43;;;13.00;;
20154;SDS011;10238;49.556;10.956;2022-10-31T15:35:53;13.05;;;11.85;;
20154;SDS011;10238;49.556;10.956;2022-10-31T15:38:43;11.48;;;10.48;;
20154;SDS011;10238;49.556;10.956;2022-10-31T15:41:31;13.07;;;11.90;;
20154;SDS011;10238;49.556;10.956;2022-10-31T15:44:26;15.07;;;13.88;;
20154;SDS011;10238;49.556;10.956;2022-10-31T15:47:18;16.40;;;15.05;;
20154;SDS011;10238;49.556;10.956;2022-10-31T15:50:19;16.65;;;15.32;;
20154;SDS011;10238;49.556;10.956;2022-10-31T15:53:15;18.20;;;16.73;;
20154;SDS011;10238;49.556;10.956;2022-10-31T15:56:07;18.88;;;17.58;;
20154;SDS011;10238;49.556;10.956;2022-10-31T15:58:59;21.27;;;19.77;;
20154;SDS011;10238;49.556;10.956;2022-10-31T16:01:55;21.63;;;20.10;;
20154;SDS011;10238;49.556;10.956;2022-10-31T16:04:49;21.30;;;19.65;;
20154;SDS011;10238;49.556;10.956;2022-10-31T16:10:37;18.15;;;16.58;;
20154;SDS011;10238;49.556;10.956;2022-10-31T16:13:26;15.25;;;14.05;;
20154;SDS011;10238;49.556;10.956;2022-10-31T16:16:17;13.38;;;12.10;;
20154;SDS011;10238;49.556;10.956;2022-10-31T16:19:20;13.95;;;12.23;;
20154;SDS011;10238;49.556;10.956;2022-10-31T16:22:13;13.57;;;12.25;;
20154;SDS011;10238;49.556;10.956;2022-10-31T16:25:10;14.90;;;12.90;;
20154;SDS011;10238;49.556;10.956;2022-10-31T16:28:02;12.88;;;11.70;;
20154;SDS011;10238;49.556;10.956;2022-10-31T16:31:12;11.75;;;10.10;;
20154;SDS011;10238;49.556;10.956;2022-10-31T16:34:02;11.63;;;10.35;;
20154;SDS011;10238;49.556;10.956;2022-10-31T16:37:01;13.43;;;9.65;;
20154;SDS011;10238;49.556;10.956;2022-10-31T16:39:49;12.15;;;9.38;;
20154;SDS011;10238;49.556;10.956;2022-10-31T16:42:43;11.57;;;10.37;;
20154;SDS011;10238;49.556;10.956;2022-10-31T16:45:32;12.20;;;9.70;;
20154;SDS011;10238;49.556;10.956;2022-10-31T16:48:21;10.38;;;9.23;;
20154;SDS011;10238;49.556;10.956;2022-10-31T16:51:09;15.27;;;11.32;;
20154;SDS011;10238;49.556;10.956;2022-10-31T16:53:57;14.30;;;12.43;;
20154;SDS011;10238;49.556;10.956;2022-10-31T16:56:46;15.35;;;13.75;;
20154;SDS011;10238;49.556;10.956;2022-10-31T16:59:36;13.82;;;12.43;;
20154;SDS011;10238;49.556;10.956;2022-10-31T17:02:23;14.10;;;12.70;;
20154;SDS011;10238;49.556;10.956;2022-10-31T17:05:13;15.02;;;12.80;;
20154;SDS011;10238;49.556;10.956;2022-10-31T17:08:02;16.73;;;14.88;;
20154;SDS011;10238;49.556;10.956;2022-10-31T17:10:51;17.15;;;15.40;;
20154;SDS011;10238;49.556;10.956;2022-10-31T17:13:44;16.25;;;12.98;;
20154;SDS011;10238;49.556;10.956;2022-10-31T17:16:35;17.30;;;12.77;;
20154;SDS011;10238;49.556;10.956;2022-10-31T17:19:23;18.60;;;13.45;;
20154;SDS011;10238;49.556;10.956;2022-10-31T17:22:11;20.50;;;13.13;;
20154;SDS011;10238;49.556;10.956;2022-10-31T17:25:01;18.80;;;13.20;;
20154;SDS011;10238;49.556;10.956;2022-10-31T17:27:49;19.42;;;13.52;;
20154;SDS011;10238;49.556;10.956;2022-10-31T17:30:37;16.98;;;12.77;;